Time;durP1;ratioP1;P1;durP2;ratioP2;P2;SDS_P1;SDS_P2;PMS_P1;PMS_P2;Temp;Humidity;BMP_temperature;BMP_pressure;BME280_temperature;BME280_humidity;BME280_pressure;Samples;Min_cycle;Max_cycle;Signal;HPM_P1;HPM_P2
2022/10/29 00:01:46;;;;;;;10.40;4.20;;;13.00;99.90;;;;;;5144434;27;20038;-45
2022/10/29 00:04:12;;;;;;;12.50;5.57;;;12.70;99.90;;;;;;5135587;27;20096;-47
2022/10/29 00:06:38;;;;;;;13.85;5.57;;;12.70;99.90;;;;;;5137176;27;20382;-48
2022/10/29 00:09:04;;;;;;;21.30;5.82;;;12.80;99.90;;;;;;5144487;27;20046;-47
2022/10/29 00:11:30;;;;;;;14.52;4.97;;;12.90;99.90;;;;;;5141877;27;20038;-45
2022/10/29 00:13:58;;;;;;;13.80;4.30;;;12.80;99.90;;;;;;5141988;27;20039;-46
2022/10/29 00:16:26;;;;;;;12.77;4.63;;;12.90;99.90;;;;;;5144714;27;20073;-46
2022/10/29 00:18:53;;;;;;;12.77;4.75;;;12.70;99.90;;;;;;5145524;27;20111;-46
2022/10/29 00:21:22;;;;;;;14.40;5.78;;;12.80;99.90;;;;;;5136905;27;20046;-47
2022/10/29 00:23:48;;;;;;;21.15;6.15;;;12.70;99.90;;;;;;5139807;27;20043;-49
2022/10/29 00:26:15;;;;;;;15.98;5.43;;;12.70;99.90;;;;;;5146812;27;20046;-45
2022/10/29 00:28:41;;;;;;;17.73;6.13;;;12.70;99.90;;;;;;5120939;27;20076;-49
2022/10/29 00:31:12;;;;;;;18.52;5.60;;;12.60;99.90;;;;;;5118491;27;20039;-44
2022/10/29 00:33:38;;;;;;;17.92;5.00;;;12.60;99.90;;;;;;5149635;27;20066;-47
2022/10/29 00:36:06;;;;;;;20.63;6.05;;;12.70;99.90;;;;;;5141589;27;20073;-46
2022/10/29 00:38:33;;;;;;;18.65;5.70;;;12.80;99.90;;;;;;5128639;27;20488;-45
2022/10/29 00:41:00;;;;;;;21.88;6.53;;;12.70;99.90;;;;;;5148167;27;20150;-47
2022/10/29 00:43:26;;;;;;;14.63;4.97;;;12.60;99.90;;;;;;5145259;27;20031;-47
2022/10/29 00:46:14;;;;;;;16.50;6.55;;;12.50;99.90;;;;;;5144816;27;20039;-46
2022/10/29 00:48:46;;;;;;;20.25;5.32;;;12.40;99.90;;;;;;5116535;27;20118;-44
2022/10/29 00:51:14;;;;;;;21.27;5.82;;;12.60;99.90;;;;;;5146110;27;20034;-48
2022/10/29 00:53:46;;;;;;;20.88;6.45;;;12.70;99.90;;;;;;5144675;27;20031;-45
2022/10/29 00:56:13;;;;;;;17.33;5.57;;;12.50;99.90;;;;;;5145903;27;20031;-45
2022/10/29 00:58:40;;;;;;;14.25;5.32;;;12.20;99.90;;;;;;5137765;27;20414;-47
2022/10/29 01:01:06;;;;;;;20.23;6.65;;;12.50;99.90;;;;;;5139603;27;20103;-48
2022/10/29 01:03:32;;;;;;;14.23;4.50;;;12.30;99.90;;;;;;5144238;27;20043;-50
2022/10/29 01:05:59;;;;;;;15.30;5.88;;;12.20;99.90;;;;;;5145967;27;20050;-46
2022/10/29 01:08:25;;;;;;;15.10;6.50;;;12.30;99.90;;;;;;5139775;27;20038;-45
2022/10/29 01:11:00;;;;;;;23.23;8.88;;;12.20;99.90;;;;;;5136547;27;20474;-47
2022/10/29 01:13:40;;;;;;;17.52;6.88;;;12.20;99.90;;;;;;5138266;27;20064;-45
2022/10/29 01:16:14;;;;;;;24.92;9.13;;;12.30;99.90;;;;;;5135111;27;20041;-49
2022/10/29 01:18:54;;;;;;;18.13;7.57;;;12.40;99.90;;;;;;5138096;27;20035;-45
2022/10/29 01:21:39;;;;;;;22.55;10.32;;;12.40;99.90;;;;;;5142105;27;20039;-47
2022/10/29 01:24:23;;;;;;;20.85;8.23;;;12.50;99.90;;;;;;5139407;27;20058;-45
2022/10/29 01:27:04;;;;;;;19.95;8.27;;;12.30;99.90;;;;;;5146119;27;20103;-44
2022/10/29 01:29:45;;;;;;;16.55;8.93;;;12.00;99.90;;;;;;5133594;27;20118;-48
2022/10/29 01:32:19;;;;;;;25.00;11.63;;;12.40;99.90;;;;;;5141895;27;20035;-45
2022/10/29 01:35:06;;;;;;;21.27;8.68;;;12.10;99.90;;;;;;5133449;27;20047;-46
2022/10/29 01:38:08;;;;;;;22.63;9.10;;;12.40;99.90;;;;;;5147049;27;20039;-47
2022/10/29 01:40:36;;;;;;;23.80;9.25;;;12.10;99.90;;;;;;5142638;27;20518;-44
2022/10/29 01:43:13;;;;;;;23.65;9.18;;;12.10;99.90;;;;;;5133421;27;20046;-44
2022/10/29 01:45:45;;;;;;;23.20;9.55;;;12.30;99.90;;;;;;5117302;27;20090;-47
2022/10/29 01:48:15;;;;;;;25.17;11.70;;;12.30;99.90;;;;;;5119757;27;20038;-46
2022/10/29 01:50:45;;;;;;;22.40;9.57;;;12.00;99.90;;;;;;5135260;27;20519;-45
2022/10/29 01:53:12;;;;;;;22.35;8.82;;;12.20;99.90;;;;;;5141179;27;20120;-46
2022/10/29 01:55:37;;;;;;;28.10;11.32;;;12.00;99.90;;;;;;5143443;27;20382;-45
2022/10/29 01:58:04;;;;;;;22.38;10.00;;;12.20;99.90;;;;;;5138984;27;20050;-46
2022/10/29 02:00:53;;;;;;;22.65;8.95;;;12.40;99.90;;;;;;5148703;27;20504;-44
2022/10/29 02:03:40;;;;;;;24.38;9.20;;;12.40;99.90;;;;;;5139801;27;20057;-46
2022/10/29 02:06:14;;;;;;;28.08;11.50;;;12.40;99.90;;;;;;5132684;27;20039;-45
2022/10/29 02:09:22;;;;;;;23.92;8.70;;;12.10;99.90;;;;;;5136906;27;20035;-44
2022/10/29 02:11:53;;;;;;;23.35;8.50;;;12.20;99.90;;;;;;5114173;27;20039;-46
2022/10/29 02:14:25;;;;;;;17.77;8.23;;;11.90;99.90;;;;;;5149158;27;20042;-46
2022/10/29 02:16:52;;;;;;;22.63;8.13;;;12.30;99.90;;;;;;5136833;27;20059;-46
2022/10/29 02:19:18;;;;;;;23.58;8.48;;;12.00;99.90;;;;;;5134622;27;20039;-44
2022/10/29 02:21:44;;;;;;;24.27;8.50;;;12.00;99.90;;;;;;5140827;27;20039;-44
2022/10/29 02:24:10;;;;;;;25.25;11.18;;;12.30;99.90;;;;;;5148700;27;20119;-44
2022/10/29 02:26:37;;;;;;;16.10;7.25;;;12.20;99.90;;;;;;5138322;27;20092;-45
2022/10/29 02:29:02;;;;;;;21.35;8.05;;;12.30;99.90;;;;;;5136185;27;20063;-44
2022/10/29 02:31:28;;;;;;;23.98;8.40;;;12.30;99.90;;;;;;5141898;27;20023;-45
2022/10/29 02:33:54;;;;;;;18.20;7.70;;;11.90;99.90;;;;;;5135811;27;20034;-47
2022/10/29 02:36:19;;;;;;;22.48;6.90;;;12.30;99.90;;;;;;5144935;27;20058;-46
2022/10/29 02:38:45;;;;;;;22.55;9.77;;;12.10;99.90;;;;;;5143093;27;20162;-46
2022/10/29 02:41:11;;;;;;;19.77;7.30;;;12.10;99.90;;;;;;5122818;27;20084;-46
2022/10/29 02:43:36;;;;;;;23.05;7.10;;;11.90;99.90;;;;;;5132142;27;20034;-46
2022/10/29 02:46:19;;;;;;;22.02;7.80;;;11.90;99.90;;;;;;5146679;27;20100;-48
2022/10/29 02:48:46;;;;;;;20.08;7.18;;;11.90;99.90;;;;;;5134278;27;20072;-45
2022/10/29 02:51:12;;;;;;;21.45;7.70;;;11.80;99.90;;;;;;5144500;27;20110;-47
2022/10/29 02:53:38;;;;;;;23.90;7.72;;;12.10;99.90;;;;;;5145596;27;20076;-46
2022/10/29 02:56:05;;;;;;;20.92;9.27;;;11.70;99.90;;;;;;5140845;27;20462;-45
2022/10/29 02:58:30;;;;;;;22.17;7.68;;;12.10;99.90;;;;;;5136732;27;20038;-45
2022/10/29 03:00:56;;;;;;;23.73;8.05;;;11.90;99.90;;;;;;5141748;27;20035;-45
2022/10/29 03:03:22;;;;;;;16.30;6.85;;;11.80;99.90;;;;;;5126813;27;20035;-44
2022/10/29 03:05:48;;;;;;;18.27;7.10;;;12.10;99.90;;;;;;5147307;27;20035;-44
2022/10/29 03:08:13;;;;;;;21.40;9.07;;;11.60;99.90;;;;;;5143846;27;20386;-44
2022/10/29 03:10:39;;;;;;;21.92;6.88;;;11.80;99.90;;;;;;5142947;27;20067;-46
2022/10/29 03:13:04;;;;;;;15.80;6.70;;;11.80;99.90;;;;;;5142890;27;20039;-46
2022/10/29 03:15:30;;;;;;;18.58;6.75;;;11.90;99.90;;;;;;5138264;27;20035;-45
2022/10/29 03:17:56;;;;;;;20.27;7.75;;;11.50;99.90;;;;;;5116512;27;20035;-44
2022/10/29 03:20:21;;;;;;;16.48;6.40;;;11.50;99.90;;;;;;5135056;27;20450;-46
2022/10/29 03:22:47;;;;;;;23.35;6.97;;;11.80;99.90;;;;;;5137328;27;20043;-46
2022/10/29 03:25:13;;;;;;;27.73;7.38;;;11.80;99.90;;;;;;5144035;27;20059;-46
2022/10/29 03:27:42;;;;;;;26.73;8.13;;;11.80;99.90;;;;;;5146614;27;20030;-44
2022/10/29 03:30:10;;;;;;;25.60;8.32;;;11.70;99.90;;;;;;5142819;27;20035;-46
2022/10/29 03:32:40;;;;;;;26.85;8.13;;;11.60;99.90;;;;;;5142981;27;20052;-44
2022/10/29 03:35:07;;;;;;;36.53;9.55;;;11.40;99.90;;;;;;5150580;27;20373;-46
2022/10/29 03:37:32;;;;;;;47.38;9.85;;;11.50;99.90;;;;;;5139910;27;20027;-44
2022/10/29 03:39:58;;;;;;;109.95;12.15;;;11.90;99.90;;;;;;5146345;27;20060;-46
2022/10/29 03:42:24;;;;;;;64.93;10.45;;;11.90;99.90;;;;;;5134989;27;20042;-44
2022/10/29 03:44:50;;;;;;;102.57;11.82;;;11.60;99.90;;;;;;5149881;27;20042;-46
2022/10/29 03:47:15;;;;;;;112.10;12.15;;;11.80;99.90;;;;;;5149516;27;20513;-44
2022/10/29 03:49:41;;;;;;;120.75;12.85;;;12.00;99.90;;;;;;5105462;27;20119;-49
2022/10/29 03:52:07;;;;;;;67.10;11.63;;;11.60;99.90;;;;;;5144384;27;20031;-45
2022/10/29 03:54:32;;;;;;;109.43;14.88;;;12.00;99.90;;;;;;5134631;27;20042;-45
2022/10/29 03:56:58;;;;;;;98.97;12.95;;;11.60;99.90;;;;;;5146149;27;20031;-45
2022/10/29 03:59:24;;;;;;;62.03;12.32;;;11.70;99.90;;;;;;5141527;27;20122;-44
2022/10/29 04:01:49;;;;;;;73.43;12.63;;;12.00;99.90;;;;;;5137157;27;20068;-45
2022/10/29 04:04:15;;;;;;;42.22;11.60;;;12.00;99.90;;;;;;5138453;27;20039;-44
2022/10/29 04:06:41;;;;;;;63.05;12.00;;;11.60;99.90;;;;;;5143202;27;20035;-46
2022/10/29 04:09:06;;;;;;;61.65;12.75;;;11.90;99.90;;;;;;5138627;27;20428;-46
2022/10/29 04:11:32;;;;;;;89.70;13.70;;;11.60;99.90;;;;;;5145586;27;20035;-45
2022/10/29 04:13:58;;;;;;;97.70;13.63;;;11.90;99.90;;;;;;5125380;27;20052;-44
2022/10/29 04:16:23;;;;;;;62.30;12.07;;;11.50;99.90;;;;;;5134141;27;20049;-47
2022/10/29 04:18:49;;;;;;;57.90;10.95;;;12.00;99.90;;;;;;5145472;27;20114;-44
2022/10/29 04:21:16;;;;;;;27.65;14.68;;;11.60;99.90;;;;;;5138187;27;20042;-44
2022/10/29 04:23:42;;;;;;;62.60;12.27;;;11.90;99.90;;;;;;5137681;27;20478;-46
2022/10/29 04:26:09;;;;;;;39.60;15.68;;;11.50;99.90;;;;;;5138347;27;20058;-44
2022/10/29 04:28:34;;;;;;;59.92;11.52;;;11.50;99.90;;;;;;5145936;27;20061;-47
2022/10/29 04:31:08;;;;;;;45.58;11.07;;;11.50;99.90;;;;;;5152006;27;20465;-44
2022/10/29 04:33:34;;;;;;;26.15;11.20;;;11.90;99.90;;;;;;5145248;27;20082;-44
2022/10/29 04:35:59;;;;;;;39.50;13.15;;;11.50;99.90;;;;;;5129639;27;20423;-45
2022/10/29 04:38:25;;;;;;;58.90;12.60;;;11.50;99.90;;;;;;5133363;27;20038;-46
2022/10/29 04:40:51;;;;;;;32.95;11.95;;;11.60;99.90;;;;;;5145111;27;20045;-45
2022/10/29 04:43:17;;;;;;;31.25;14.35;;;11.90;99.90;;;;;;5140608;27;20114;-45
2022/10/29 04:45:43;;;;;;;35.70;12.80;;;11.70;99.90;;;;;;5151381;27;20440;-45
2022/10/29 04:48:09;;;;;;;31.10;12.32;;;11.90;99.90;;;;;;5148408;27;20172;-45
2022/10/29 04:50:37;;;;;;;40.13;12.60;;;11.70;99.90;;;;;;5134390;27;20485;-44
2022/10/29 04:53:04;;;;;;;35.92;13.40;;;11.90;99.90;;;;;;5141939;27;20111;-45
2022/10/29 04:55:30;;;;;;;40.85;12.80;;;11.50;99.90;;;;;;5139682;27;20492;-45
2022/10/29 04:57:56;;;;;;;33.03;13.95;;;11.60;99.90;;;;;;5145326;27;20122;-44
2022/10/29 05:00:22;;;;;;;35.85;12.88;;;11.50;99.90;;;;;;5148108;27;21217;-45
2022/10/29 05:02:49;;;;;;;48.13;14.73;;;11.50;99.90;;;;;;5146906;27;20038;-49
2022/10/29 05:05:16;;;;;;;38.90;14.63;;;11.90;99.90;;;;;;5116790;27;20027;-45
2022/10/29 05:07:42;;;;;;;28.30;14.82;;;12.00;99.90;;;;;;5134505;27;20050;-47
2022/10/29 05:10:08;;;;;;;34.95;15.73;;;12.00;99.90;;;;;;5148519;27;20039;-48
2022/10/29 05:12:33;;;;;;;44.65;16.42;;;11.90;99.90;;;;;;5138608;27;20470;-45
2022/10/29 05:14:59;;;;;;;34.05;15.93;;;11.90;99.90;;;;;;5133440;27;20027;-44
2022/10/29 05:17:25;;;;;;;37.17;16.92;;;12.10;99.90;;;;;;5129132;27;20035;-45
2022/10/29 05:19:50;;;;;;;40.45;21.90;;;11.80;99.90;;;;;;5140237;27;20031;-47
2022/10/29 05:22:16;;;;;;;32.47;15.60;;;11.90;99.90;;;;;;5136251;27;20034;-47
2022/10/29 05:24:42;;;;;;;39.38;17.25;;;12.20;99.90;;;;;;5116448;27;20063;-46
2022/10/29 05:27:08;;;;;;;42.10;17.15;;;11.70;99.90;;;;;;5140419;27;20084;-46
2022/10/29 05:29:33;;;;;;;45.40;22.48;;;11.70;99.90;;;;;;5136585;27;20445;-45
2022/10/29 05:31:59;;;;;;;46.97;23.30;;;12.20;99.90;;;;;;5143054;27;20041;-46
2022/10/29 05:34:25;;;;;;;34.60;15.88;;;12.20;99.90;;;;;;5146520;27;20057;-44
2022/10/29 05:36:50;;;;;;;42.30;17.33;;;12.00;99.90;;;;;;5133075;27;20135;-44
2022/10/29 05:39:16;;;;;;;36.47;17.58;;;11.80;99.90;;;;;;5135429;27;20045;-48
2022/10/29 05:41:42;;;;;;;35.95;17.60;;;12.10;99.90;;;;;;5142267;27;20050;-46
2022/10/29 05:44:08;;;;;;;44.33;17.88;;;12.10;99.90;;;;;;5140769;27;20087;-45
2022/10/29 05:46:33;;;;;;;50.58;23.98;;;11.80;99.90;;;;;;5139483;27;20087;-46
2022/10/29 05:48:59;;;;;;;42.78;17.90;;;12.10;99.90;;;;;;5142363;27;20034;-47
2022/10/29 05:51:25;;;;;;;44.58;24.58;;;12.30;99.90;;;;;;5143500;27;20571;-47
2022/10/29 05:53:50;;;;;;;38.42;17.05;;;12.30;99.90;;;;;;5131924;27;20038;-47
2022/10/29 05:56:16;;;;;;;38.13;18.98;;;11.90;99.90;;;;;;5147209;27;20119;-45
2022/10/29 05:58:42;;;;;;;43.47;22.65;;;12.30;99.90;;;;;;5137158;27;20043;-47
2022/10/29 06:01:09;;;;;;;33.72;17.05;;;12.00;99.90;;;;;;5143785;27;20140;-46
2022/10/29 06:03:37;;;;;;;37.33;17.42;;;11.90;99.90;;;;;;5143214;27;20031;-48
2022/10/29 06:06:03;;;;;;;35.22;19.00;;;12.40;99.90;;;;;;5143011;27;20038;-48
2022/10/29 06:08:28;;;;;;;38.00;22.35;;;12.20;99.90;;;;;;5136785;27;20035;-45
2022/10/29 06:10:54;;;;;;;39.65;18.65;;;11.90;99.90;;;;;;5138129;27;20035;-45
2022/10/29 06:13:21;;;;;;;43.63;18.52;;;12.10;99.90;;;;;;5132985;27;20121;-49
2022/10/29 06:15:48;;;;;;;46.17;25.73;;;12.40;99.90;;;;;;5134757;27;20034;-45
2022/10/29 06:18:14;;;;;;;46.00;19.13;;;12.10;99.90;;;;;;5133509;27;20039;-44
2022/10/29 06:20:42;;;;;;;53.70;25.92;;;12.40;99.90;;;;;;5144376;27;20064;-45
2022/10/29 06:23:09;;;;;;;42.67;19.20;;;12.40;99.90;;;;;;5142615;27;20058;-44
2022/10/29 06:25:34;;;;;;;43.83;19.75;;;11.90;99.90;;;;;;5147310;27;20043;-45
2022/10/29 06:28:06;;;;;;;54.00;22.80;;;12.40;99.90;;;;;;5138791;27;20036;-47
2022/10/29 06:30:33;;;;;;;46.83;21.55;;;12.10;99.90;;;;;;5141386;27;20453;-46
2022/10/29 06:32:59;;;;;;;60.35;27.05;;;11.90;99.90;;;;;;5140817;27;20419;-47
2022/10/29 06:35:25;;;;;;;44.63;25.50;;;12.10;99.90;;;;;;5124085;27;20043;-44
2022/10/29 06:37:51;;;;;;;45.28;20.67;;;12.00;99.90;;;;;;5140133;27;20389;-47
2022/10/29 06:40:17;;;;;;;44.97;20.98;;;12.40;99.90;;;;;;5139210;27;20039;-46
2022/10/29 06:42:43;;;;;;;44.67;21.58;;;12.10;99.90;;;;;;5137882;27;20092;-46
2022/10/29 06:45:09;;;;;;;48.67;26.20;;;12.00;99.90;;;;;;5146603;27;20031;-45
2022/10/29 06:47:43;;;;;;;43.80;20.58;;;11.90;99.90;;;;;;5147556;27;20401;-48
2022/10/29 06:50:10;;;;;;;42.35;20.75;;;12.40;99.90;;;;;;5135164;27;20069;-47
2022/10/29 06:52:35;;;;;;;47.63;23.48;;;12.30;99.90;;;;;;5133289;27;20043;-45
2022/10/29 06:55:02;;;;;;;48.97;22.98;;;12.20;99.90;;;;;;5128971;27;21391;-46
2022/10/29 06:57:28;;;;;;;53.05;23.52;;;12.00;99.90;;;;;;5134238;27;20039;-47
2022/10/29 06:59:54;;;;;;;47.55;22.27;;;12.30;99.90;;;;;;5131019;27;20040;-47
2022/10/29 07:02:21;;;;;;;47.58;27.35;;;12.00;99.90;;;;;;5132535;27;20386;-45
2022/10/29 07:04:47;;;;;;;45.42;21.08;;;12.10;99.90;;;;;;5128330;27;20055;-47
2022/10/29 07:07:13;;;;;;;53.30;28.55;;;12.20;99.90;;;;;;5139001;27;20035;-45
2022/10/29 07:09:39;;;;;;;48.15;25.70;;;12.20;99.90;;;;;;5115028;27;20478;-47
2022/10/29 07:12:05;;;;;;;47.90;21.73;;;12.20;99.90;;;;;;5148022;27;20031;-44
2022/10/29 07:14:31;;;;;;;50.28;25.88;;;12.70;99.90;;;;;;5133495;27;20473;-46
2022/10/29 07:16:57;;;;;;;52.40;27.27;;;12.70;99.90;;;;;;5138248;27;20045;-44
2022/10/29 07:19:23;;;;;;;45.60;22.80;;;12.70;99.90;;;;;;5135917;27;20042;-45
2022/10/29 07:21:48;;;;;;;49.45;27.67;;;12.60;99.90;;;;;;5138079;27;20035;-46
2022/10/29 07:24:16;;;;;;;47.88;28.75;;;12.70;99.90;;;;;;5141907;27;20058;-47
2022/10/29 07:26:42;;;;;;;45.03;22.15;;;12.30;99.90;;;;;;5133716;27;20424;-43
2022/10/29 07:29:08;;;;;;;43.75;23.55;;;12.30;99.90;;;;;;5132647;27;20030;-49
2022/10/29 07:31:34;;;;;;;53.67;28.88;;;12.30;99.90;;;;;;5137042;27;20031;-48
2022/10/29 07:34:00;;;;;;;53.30;29.20;;;12.60;99.90;;;;;;5131231;27;20038;-45
2022/10/29 07:36:25;;;;;;;46.17;23.25;;;12.90;99.90;;;;;;5131176;27;20034;-48
2022/10/29 07:38:51;;;;;;;55.10;31.05;;;12.90;99.90;;;;;;5138292;27;20023;-45
2022/10/29 07:41:17;;;;;;;46.88;24.23;;;12.40;99.90;;;;;;5131796;27;20092;-46
2022/10/29 07:43:42;;;;;;;52.10;28.45;;;13.00;99.90;;;;;;5128643;27;20421;-45
2022/10/29 07:46:08;;;;;;;53.20;29.85;;;12.80;99.90;;;;;;5141425;27;20043;-44
2022/10/29 07:48:34;;;;;;;47.15;23.92;;;12.70;99.90;;;;;;5133411;27;20595;-44
2022/10/29 07:51:02;;;;;;;47.83;29.08;;;13.00;99.90;;;;;;5131238;27;20504;-43
2022/10/29 07:53:30;;;;;;;51.75;31.65;;;12.50;99.90;;;;;;5137038;27;20134;-44
2022/10/29 07:55:56;;;;;;;52.30;31.70;;;13.10;99.90;;;;;;5135249;27;20118;-45
2022/10/29 07:58:22;;;;;;;54.25;32.67;;;12.90;99.90;;;;;;5134084;27;20039;-47
2022/10/29 08:00:48;;;;;;;46.03;25.95;;;13.20;99.90;;;;;;5131500;27;20386;-45
2022/10/29 08:03:14;;;;;;;54.28;27.42;;;12.70;99.90;;;;;;5132152;27;20032;-44
2022/10/29 08:05:40;;;;;;;49.22;32.97;;;13.20;99.90;;;;;;5128758;27;20054;-46
2022/10/29 08:08:06;;;;;;;56.58;32.60;;;12.90;99.90;;;;;;5134413;27;20126;-45
2022/10/29 08:10:33;;;;;;;54.47;28.20;;;12.90;99.90;;;;;;5129628;27;20047;-44
2022/10/29 08:13:01;;;;;;;55.00;33.60;;;13.40;99.90;;;;;;5130608;27;20355;-45
2022/10/29 08:15:29;;;;;;;57.30;30.70;;;12.90;99.90;;;;;;5100345;27;20862;-44
2022/10/29 08:17:55;;;;;;;54.80;32.42;;;13.20;99.90;;;;;;5125020;27;20560;-47
2022/10/29 08:20:23;;;;;;;56.58;34.00;;;13.00;99.90;;;;;;5135839;27;20477;-45
2022/10/29 08:22:49;;;;;;;54.58;33.30;;;13.50;99.90;;;;;;5135028;27;20039;-45
2022/10/29 08:25:15;;;;;;;56.72;33.53;;;13.60;99.90;;;;;;5127506;27;20081;-46
2022/10/29 08:27:41;;;;;;;59.20;34.28;;;13.60;99.90;;;;;;5122942;27;20176;-44
2022/10/29 08:30:09;;;;;;;59.35;34.78;;;13.10;99.90;;;;;;5115007;27;20071;-46
2022/10/29 08:32:35;;;;;;;61.85;34.67;;;13.10;99.90;;;;;;5129135;27;20372;-45
2022/10/29 08:35:01;;;;;;;54.85;32.85;;;13.50;99.90;;;;;;5122892;27;20072;-45
2022/10/29 08:37:28;;;;;;;53.03;34.20;;;13.90;99.90;;;;;;5129774;27;20043;-45
2022/10/29 08:39:53;;;;;;;59.70;34.92;;;13.90;99.90;;;;;;5127398;27;20375;-48
2022/10/29 08:42:28;;;;;;;59.78;34.90;;;13.40;99.90;;;;;;5113389;27;20179;-45
2022/10/29 08:45:12;;;;;;;62.10;36.08;;;13.50;99.90;;;;;;5129714;27;20039;-45
2022/10/29 08:48:15;;;;;;;61.67;34.50;;;14.20;99.90;;;;;;5130615;27;20474;-44
2022/10/29 08:50:47;;;;;;;57.28;36.08;;;14.10;99.90;;;;;;5129820;27;20035;-44
2022/10/29 08:53:23;;;;;;;58.70;35.63;;;13.70;99.90;;;;;;5130107;27;20043;-46
2022/10/29 08:55:49;;;;;;;55.67;34.38;;;13.90;99.90;;;;;;5112574;27;20057;-44
2022/10/29 08:58:32;;;;;;;63.55;36.42;;;13.90;99.90;;;;;;5129334;27;20126;-46
2022/10/29 09:00:58;;;;;;;58.47;36.42;;;14.00;99.90;;;;;;5131422;27;20061;-44
2022/10/29 09:03:28;;;;;;;54.13;34.08;;;14.60;99.90;;;;;;5136790;27;20114;-45
2022/10/29 09:06:17;;;;;;;54.10;33.83;;;14.10;99.90;;;;;;5110200;27;20035;-49
2022/10/29 09:08:54;;;;;;;58.05;33.65;;;14.40;99.90;;;;;;5132933;27;20039;-44
2022/10/29 09:11:43;;;;;;;53.50;34.40;;;14.30;99.90;;;;;;5124485;27;20073;-44
2022/10/29 09:14:31;;;;;;;47.53;32.38;;;14.90;99.90;;;;;;5124041;27;20118;-47
2022/10/29 09:17:21;;;;;;;55.83;34.17;;;14.40;99.90;;;;;;5132502;27;20417;-47
2022/10/29 09:20:08;;;;;;;52.45;32.72;;;14.60;99.90;;;;;;5126594;27;20050;-44
2022/10/29 09:23:03;;;;;;;52.17;30.40;;;15.20;99.90;;;;;;5125107;27;20058;-44
2022/10/29 09:25:33;;;;;;;44.42;30.27;;;15.40;99.90;;;;;;5101996;27;20381;-47
2022/10/29 09:28:24;;;;;;;43.97;28.33;;;15.20;99.90;;;;;;5134263;27;20047;-44
2022/10/29 09:31:14;;;;;;;44.05;28.17;;;15.10;99.90;;;;;;5127343;27;20051;-44
2022/10/29 09:33:41;;;;;;;42.78;29.15;;;15.00;99.90;;;;;;5136854;27;20039;-45
2022/10/29 09:36:14;;;;;;;41.85;25.90;;;14.90;99.90;;;;;;5124451;27;20062;-46
2022/10/29 09:38:50;;;;;;;41.45;28.80;;;15.50;99.90;;;;;;5112196;27;20061;-45
2022/10/29 09:41:16;;;;;;;42.05;28.35;;;15.00;99.90;;;;;;5135298;27;20035;-45
2022/10/29 09:43:44;;;;;;;41.35;28.75;;;15.10;99.90;;;;;;5115139;27;20066;-44
2022/10/29 09:46:22;;;;;;;40.88;29.45;;;15.70;99.90;;;;;;5135209;27;20035;-46
2022/10/29 09:49:07;;;;;;;45.75;28.50;;;15.70;99.90;;;;;;5130773;27;20087;-45
2022/10/29 09:52:00;;;;;;;44.67;27.88;;;15.20;99.90;;;;;;5141050;27;20511;-47
2022/10/29 09:54:29;;;;;;;40.92;29.73;;;15.90;99.90;;;;;;5108836;27;20845;-45
2022/10/29 09:56:57;;;;;;;45.03;29.65;;;15.40;99.90;;;;;;5138455;27;20038;-44
2022/10/29 09:59:40;;;;;;;45.17;28.65;;;15.70;99.90;;;;;;5128648;27;20105;-45
2022/10/29 10:02:28;;;;;;;38.08;27.45;;;16.00;99.90;;;;;;5107891;27;20123;-45
2022/10/29 10:05:00;;;;;;;44.47;27.85;;;16.10;99.90;;;;;;5127455;27;20045;-44
2022/10/29 10:07:26;;;;;;;41.47;28.67;;;16.30;99.90;;;;;;5131267;27;20035;-45
2022/10/29 10:09:59;;;;;;;41.17;27.20;;;16.00;99.90;;;;;;5124787;27;20035;-46
2022/10/29 10:12:37;;;;;;;36.17;24.17;;;16.40;99.90;;;;;;5129711;27;20065;-46
2022/10/29 10:15:14;;;;;;;36.83;24.10;;;16.50;99.90;;;;;;5130830;27;20091;-46
2022/10/29 10:17:53;;;;;;;37.28;24.63;;;16.20;99.90;;;;;;5129282;27;20039;-47
2022/10/29 10:20:43;;;;;;;34.00;22.80;;;16.80;99.90;;;;;;5131201;27;20035;-45
2022/10/29 10:23:40;;;;;;;35.53;21.50;;;16.70;99.90;;;;;;5128951;27;20031;-45
2022/10/29 10:26:28;;;;;;;27.02;18.50;;;17.20;99.90;;;;;;5122841;27;20071;-46
2022/10/29 10:29:22;;;;;;;25.05;18.85;;;17.60;99.90;;;;;;5128514;27;20370;-44
2022/10/29 10:31:49;;;;;;;32.37;18.43;;;17.70;99.90;;;;;;5126934;27;20072;-48
2022/10/29 10:34:24;;;;;;;30.90;17.73;;;17.40;99.90;;;;;;5124064;27;20027;-48
2022/10/29 10:37:10;;;;;;;28.52;18.30;;;17.30;99.90;;;;;;5126033;27;20038;-45
2022/10/29 10:40:03;;;;;;;27.95;18.15;;;17.40;99.90;;;;;;5112433;27;20394;-45
2022/10/29 10:42:35;;;;;;;28.00;17.63;;;17.50;99.90;;;;;;5136311;27;20058;-46
2022/10/29 10:45:13;;;;;;;29.50;18.00;;;17.30;99.90;;;;;;5131141;27;20088;-47
2022/10/29 10:47:49;;;;;;;34.03;17.55;;;17.10;99.90;;;;;;5138618;27;20034;-46
2022/10/29 10:50:28;;;;;;;31.40;18.70;;;17.10;99.90;;;;;;5138685;27;20031;-43
2022/10/29 10:53:00;;;;;;;29.98;19.20;;;17.10;99.90;;;;;;5131513;27;20043;-44
2022/10/29 10:55:33;;;;;;;30.40;19.02;;;17.40;99.90;;;;;;5135559;27;20043;-45
2022/10/29 10:58:05;;;;;;;35.42;20.05;;;17.50;99.90;;;;;;5137465;27;20035;-45
2022/10/29 11:00:37;;;;;;;32.58;19.15;;;17.10;99.90;;;;;;5129204;27;20065;-44
2022/10/29 11:03:09;;;;;;;30.35;18.70;;;17.40;99.90;;;;;;5128846;27;20582;-45
2022/10/29 11:06:17;;;;;;;33.92;17.88;;;17.60;99.90;;;;;;5111285;27;20051;-44
2022/10/29 11:08:59;;;;;;;31.25;17.95;;;17.30;99.90;;;;;;5122970;27;20051;-47
2022/10/29 11:11:31;;;;;;;26.02;17.95;;;17.60;99.90;;;;;;5126624;27;20058;-45
2022/10/29 11:14:09;;;;;;;29.83;17.98;;;17.70;99.90;;;;;;5124606;27;20359;-47
2022/10/29 11:16:43;;;;;;;25.92;17.73;;;17.60;99.90;;;;;;5127207;27;20042;-48
2022/10/29 11:19:15;;;;;;;24.77;17.77;;;17.70;99.90;;;;;;5129982;27;20035;-46
2022/10/29 11:22:14;;;;;;;26.67;17.25;;;17.60;99.90;;;;;;5121888;27;20039;-46
2022/10/29 11:24:43;;;;;;;26.08;16.88;;;17.70;99.90;;;;;;5119168;27;20124;-46
2022/10/29 11:27:17;;;;;;;28.58;16.48;;;18.00;99.90;;;;;;5130816;27;20039;-46
2022/10/29 11:29:52;;;;;;;31.48;17.40;;;18.20;99.90;;;;;;5136526;27;20039;-47
2022/10/29 11:32:51;;;;;;;28.17;15.98;;;18.00;99.90;;;;;;5140216;27;20428;-45
2022/10/29 11:35:35;;;;;;;25.13;15.90;;;18.20;99.90;;;;;;5126920;27;20121;-46
2022/10/29 11:38:17;;;;;;;30.35;16.75;;;18.20;99.90;;;;;;5132912;27;20071;-46
2022/10/29 11:41:03;;;;;;;31.00;17.33;;;18.10;99.90;;;;;;5114907;27;20049;-47
2022/10/29 11:43:30;;;;;;;27.00;15.98;;;18.30;99.90;;;;;;5132954;27;20114;-44
2022/10/29 11:46:10;;;;;;;27.50;15.43;;;18.50;99.90;;;;;;5142621;27;20171;-47
2022/10/29 11:49:17;;;;;;;28.75;14.35;;;19.00;99.90;;;;;;5134339;27;20070;-45
2022/10/29 11:52:08;;;;;;;24.75;13.50;;;19.50;99.90;;;;;;5141111;27;20042;-47
2022/10/29 11:54:40;;;;;;;23.98;13.23;;;19.60;99.90;;;;;;5146355;27;20078;-45
2022/10/29 11:57:18;;;;;;;19.83;12.48;;;19.70;99.90;;;;;;5146094;27;20035;-46
2022/10/29 12:00:06;;;;;;;23.65;13.07;;;19.60;99.90;;;;;;5140483;27;20042;-46
2022/10/29 12:02:57;;;;;;;24.30;12.85;;;19.60;99.90;;;;;;5127325;27;20106;-48
2022/10/29 12:05:55;;;;;;;23.92;13.18;;;19.40;99.90;;;;;;5141749;27;20031;-44
2022/10/29 12:08:47;;;;;;;22.25;12.40;;;19.40;99.90;;;;;;5146432;27;20040;-47
2022/10/29 12:11:31;;;;;;;26.52;13.68;;;19.20;99.90;;;;;;5139753;27;20077;-47
2022/10/29 12:14:26;;;;;;;23.67;13.32;;;19.00;99.90;;;;;;5141130;27;20091;-45
2022/10/29 12:16:57;;;;;;;24.50;13.63;;;19.10;99.90;;;;;;5137839;27;20034;-49
2022/10/29 12:19:43;;;;;;;23.25;12.68;;;19.00;99.90;;;;;;5138625;27;20031;-48
2022/10/29 12:22:26;;;;;;;24.95;12.40;;;18.90;99.90;;;;;;5153572;27;20087;-45
2022/10/29 12:25:17;;;;;;;21.90;12.82;;;19.00;99.90;;;;;;5140408;27;20049;-48
2022/10/29 12:27:48;;;;;;;25.08;13.15;;;18.90;99.90;;;;;;5138884;27;20042;-46
2022/10/29 12:30:17;;;;;;;23.20;12.50;;;19.10;99.90;;;;;;5143024;27;20073;-47
2022/10/29 12:33:00;;;;;;;25.13;12.57;;;19.00;99.90;;;;;;5135321;27;20050;-47
2022/10/29 12:35:37;;;;;;;24.97;12.20;;;19.10;99.90;;;;;;5139667;27;20122;-47
2022/10/29 12:38:47;;;;;;;22.67;13.10;;;19.00;99.90;;;;;;5133942;27;20031;-46
2022/10/29 12:41:39;;;;;;;26.77;13.07;;;19.10;99.90;;;;;;5097455;27;20043;-46
2022/10/29 12:44:39;;;;;;;24.15;12.52;;;19.10;99.90;;;;;;5138581;27;20122;-47
2022/10/29 12:47:08;;;;;;;28.25;13.55;;;19.10;99.90;;;;;;5138744;27;20039;-45
2022/10/29 12:49:43;;;;;;;24.67;13.30;;;19.10;99.90;;;;;;5136310;27;20038;-46
2022/10/29 12:52:32;;;;;;;25.52;13.15;;;19.10;99.90;;;;;;5139215;27;20474;-46